Time;durP1;ratioP1;P1;durP2;ratioP2;P2;SDS_P1;SDS_P2;PMS_P1;PMS_P2;Temp;Humidity;BMP_temperature;BMP_pressure;BME280_temperature;BME280_humidity;BME280_pressure;Samples;Min_cycle;Max_cycle;Signal;HPM_P1;HPM_P2
2022/04/15 00:01:44;;;;;;;10.13;4.97;;;;;;;;;;7634617;23;20017;-81
2022/04/15 00:04:47;;;;;;;14.27;4.43;;;;;;;;;;7640653;23;20048;-81
2022/04/15 00:07:50;;;;;;;8.13;4.47;;;;;;;;;;7633528;23;20356;-81
2022/04/15 00:10:53;;;;;;;8.45;3.50;;;;;;;;;;7635776;23;20017;-81
2022/04/15 00:14:00;;;;;;;7.72;3.42;;;;;;;;;;7646479;23;20384;-81
2022/04/15 00:17:04;;;;;;;6.18;4.03;;;;;;;;;;7634778;23;20017;-81
2022/04/15 00:20:11;;;;;;;7.00;3.00;;;;;;;;;;7648147;23;20021;-81
2022/04/15 00:23:18;;;;;;;6.22;3.13;;;;;;;;;;7650671;23;20340;-81
2022/04/15 00:26:20;;;;;;;4.68;3.05;;;;;;;;;;7637490;23;20092;-82
2022/04/15 00:29:24;;;;;;;5.80;3.65;;;;;;;;;;7635816;23;20096;-81
2022/04/15 00:32:30;;;;;;;6.00;3.40;;;;;;;;;;7648700;23;20017;-80
2022/04/15 00:35:33;;;;;;;6.68;3.13;;;;;;;;;;7636176;23;20021;-80
2022/04/15 00:38:36;;;;;;;6.25;3.28;;;;;;;;;;7635818;23;20024;-83
2022/04/15 00:41:42;;;;;;;9.27;4.13;;;;;;;;;;7636218;23;20017;-83
2022/04/15 00:44:45;;;;;;;7.00;3.03;;;;;;;;;;7649916;23;20097;-83
2022/04/15 00:47:51;;;;;;;7.70;3.53;;;;;;;;;;7635417;23;20025;-82
2022/04/15 00:50:54;;;;;;;5.13;3.70;;;;;;;;;;7648203;23;20314;-81
2022/04/15 00:53:59;;;;;;;6.72;3.58;;;;;;;;;;7637635;23;20021;-81
2022/04/15 00:57:02;;;;;;;13.43;3.55;;;;;;;;;;7637505;23;20482;-81
2022/04/15 01:00:06;;;;;;;5.63;3.15;;;;;;;;;;7633471;23;20045;-84
2022/04/15 01:03:11;;;;;;;6.13;3.63;;;;;;;;;;7635972;23;20072;-80
2022/04/15 01:06:14;;;;;;;6.70;3.50;;;;;;;;;;7635986;23;20021;-81
2022/04/15 01:09:21;;;;;;;7.68;3.78;;;;;;;;;;7646885;23;20037;-80
2022/04/15 01:12:28;;;;;;;5.70;3.55;;;;;;;;;;7648550;23;20021;-81
2022/04/15 01:15:31;;;;;;;6.28;3.85;;;;;;;;;;7635821;23;20021;-81
2022/04/15 01:18:35;;;;;;;10.23;3.95;;;;;;;;;;7635863;23;20022;-82
2022/04/15 01:21:40;;;;;;;6.60;3.45;;;;;;;;;;7647421;23;20503;-81
2022/04/15 01:24:45;;;;;;;8.20;3.75;;;;;;;;;;7637507;23;20044;-81
2022/04/15 01:27:48;;;;;;;9.05;3.58;;;;;;;;;;7636142;23;20024;-83
2022/04/15 01:30:51;;;;;;;6.93;3.50;;;;;;;;;;7633869;23;20357;-82
2022/04/15 01:33:54;;;;;;;7.80;3.53;;;;;;;;;;7636489;23;20084;-82
2022/04/15 01:36:57;;;;;;;8.82;3.42;;;;;;;;;;7636348;23;20017;-84
2022/04/15 01:40:04;;;;;;;6.97;3.65;;;;;;;;;;7649075;23;20013;-84
2022/04/15 01:43:10;;;;;;;5.03;3.20;;;;;;;;;;7647137;23;20021;-85
2022/04/15 01:46:12;;;;;;;11.13;4.07;;;;;;;;;;7637071;23;20028;-83
2022/04/15 01:49:18;;;;;;;7.95;3.25;;;;;;;;;;7647696;23;20080;-83
2022/04/15 01:52:23;;;;;;;7.18;3.42;;;;;;;;;;7645487;23;20023;-83
2022/04/15 01:55:30;;;;;;;5.45;3.30;;;;;;;;;;7648814;23;20017;-82
2022/04/15 01:58:33;;;;;;;6.15;3.28;;;;;;;;;;7635476;23;20282;-82
2022/04/15 02:01:39;;;;;;;;;;;;;;;;;;7647758;23;20021;-80
2022/04/15 02:04:42;;;;;;;4.53;3.13;;;;;;;;;;7634741;23;19922;-82
2022/04/15 02:07:45;;;;;;;9.13;4.22;;;;;;;;;;7635621;23;20130;-80
2022/04/15 02:10:49;;;;;;;7.00;3.40;;;;;;;;;;7635174;23;20021;-82
2022/04/15 02:13:52;;;;;;;5.40;3.30;;;;;;;;;;7634311;23;20017;-83
2022/04/15 02:16:55;;;;;;;6.82;3.15;;;;;;;;;;7635481;23;20104;-82
2022/04/15 02:20:03;;;;;;;6.80;3.20;;;;;;;;;;7649599;23;20053;-83
2022/04/15 02:23:06;;;;;;;6.13;3.22;;;;;;;;;;7633999;23;20021;-84
2022/04/15 02:26:11;;;;;;;6.45;3.20;;;;;;;;;;7635416;23;20028;-85
2022/04/15 02:29:13;;;;;;;7.00;3.25;;;;;;;;;;7636868;23;20149;-86
2022/04/15 02:32:16;;;;;;;6.20;3.08;;;;;;;;;;7636496;23;20024;-84
2022/04/15 02:35:19;;;;;;;8.25;3.20;;;;;;;;;;7632609;23;20344;-82
2022/04/15 02:38:22;;;;;;;6.50;3.38;;;;;;;;;;7634878;23;20021;-82
2022/04/15 02:41:27;;;;;;;6.88;3.40;;;;;;;;;;7634812;23;20021;-86
2022/04/15 02:44:32;;;;;;;11.15;3.78;;;;;;;;;;7647492;23;20021;-85
2022/04/15 02:47:35;;;;;;;6.82;3.20;;;;;;;;;;7634370;23;20028;-82
2022/04/15 02:50:39;;;;;;;8.82;3.17;;;;;;;;;;7636281;23;20020;-82
2022/04/15 02:53:42;;;;;;;8.57;3.85;;;;;;;;;;7634358;23;20080;-81
2022/04/15 02:56:49;;;;;;;5.50;3.50;;;;;;;;;;7644816;23;20022;-81
2022/04/15 02:59:52;;;;;;;9.15;3.88;;;;;;;;;;7636374;23;20025;-81
2022/04/15 03:02:55;;;;;;;9.18;3.35;;;;;;;;;;7636649;23;20022;-80
2022/04/15 03:05:58;;;;;;;6.00;3.30;;;;;;;;;;7631766;23;20023;-80
2022/04/15 03:09:04;;;;;;;6.60;3.35;;;;;;;;;;7646669;23;20476;-81
2022/04/15 03:12:09;;;;;;;5.45;3.20;;;;;;;;;;7636219;23;20018;-81
2022/04/15 03:15:12;;;;;;;;;;;;;;;;;;7646325;23;20021;-82
2022/04/15 03:18:15;;;;;;;9.70;3.60;;;;;;;;;;7633464;23;19948;-81
2022/04/15 03:21:18;;;;;;;6.18;3.38;;;;;;;;;;7636143;23;20024;-81
2022/04/15 03:24:21;;;;;;;7.15;3.33;;;;;;;;;;7634584;23;20023;-82
2022/04/15 03:27:25;;;;;;;8.00;3.58;;;;;;;;;;7631869;23;20544;-83
2022/04/15 03:30:28;;;;;;;8.52;3.30;;;;;;;;;;7636021;23;20026;-81
2022/04/15 03:33:33;;;;;;;8.80;3.17;;;;;;;;;;7646138;23;20025;-81
2022/04/15 03:36:36;;;;;;;6.80;3.60;;;;;;;;;;7632689;23;20021;-80
2022/04/15 03:39:39;;;;;;;6.32;3.20;;;;;;;;;;7635235;23;20063;-83
2022/04/15 03:42:44;;;;;;;11.68;3.28;;;;;;;;;;7634727;23;20104;-81
2022/04/15 03:45:47;;;;;;;8.80;2.90;;;;;;;;;;7647883;23;20017;-82
2022/04/15 03:48:50;;;;;;;10.18;3.35;;;;;;;;;;7631935;23;20045;-83
2022/04/15 03:51:53;;;;;;;10.23;3.40;;;;;;;;;;7637963;23;20021;-84
2022/04/15 03:54:56;;;;;;;7.80;3.50;;;;;;;;;;7638693;23;20017;-88
2022/04/15 03:58:01;;;;;;;7.38;3.60;;;;;;;;;;7634790;23;20494;-89
2022/04/15 04:01:04;;;;;;;5.47;3.00;;;;;;;;;;7638411;23;20021;-88
2022/04/15 04:04:07;;;;;;;8.63;3.42;;;;;;;;;;7636763;23;20069;-88
2022/04/15 04:07:11;;;;;;;9.25;2.92;;;;;;;;;;7635869;23;20017;-84
2022/04/15 04:10:14;;;;;;;7.05;3.25;;;;;;;;;;7635187;23;20341;-81
2022/04/15 04:13:19;;;;;;;10.30;3.60;;;;;;;;;;7638234;23;20412;-79
2022/04/15 04:16:24;;;;;;;7.07;3.50;;;;;;;;;;7648880;23;20437;-80
2022/04/15 04:19:27;;;;;;;5.50;3.42;;;;;;;;;;7634136;23;20027;-82
2022/04/15 04:22:33;;;;;;;13.32;3.88;;;;;;;;;;7648957;23;20076;-81
2022/04/15 04:25:39;;;;;;;7.18;3.15;;;;;;;;;;7648174;23;20017;-81
2022/04/15 04:28:44;;;;;;;10.15;3.38;;;;;;;;;;7633299;23;20017;-81
2022/04/15 04:31:46;;;;;;;7.15;3.33;;;;;;;;;;7632024;23;20439;-82
2022/04/15 04:34:49;;;;;;;8.55;3.33;;;;;;;;;;7634232;23;20028;-81
2022/04/15 04:37:52;;;;;;;5.45;3.47;;;;;;;;;;7634185;23;20017;-81
2022/04/15 04:40:58;;;;;;;10.90;3.28;;;;;;;;;;7643975;23;20045;-77
2022/04/15 04:44:02;;;;;;;10.63;3.53;;;;;;;;;;7634526;23;20101;-80
2022/04/15 04:47:06;;;;;;;8.05;3.20;;;;;;;;;;7632668;23;20068;-80
2022/04/15 04:50:11;;;;;;;8.38;3.65;;;;;;;;;;7643816;23;20013;-80
2022/04/15 04:53:16;;;;;;;31.85;13.57;;;;;;;;;;7644898;23;20332;-82
2022/04/15 04:56:19;;;;;;;36.35;19.05;;;;;;;;;;7635205;23;20045;-81
2022/04/15 04:59:25;;;;;;;11.85;5.63;;;;;;;;;;7635945;23;20441;-80
2022/04/15 05:02:28;;;;;;;5.68;3.33;;;;;;;;;;7646763;23;20337;-79
2022/04/15 05:05:31;;;;;;;4.53;3.08;;;;;;;;;;7637030;23;20088;-80
2022/04/15 05:08:34;;;;;;;8.38;3.70;;;;;;;;;;7637584;23;20025;-84
2022/04/15 05:11:37;;;;;;;7.68;3.70;;;;;;;;;;7633470;23;20346;-84
2022/04/15 05:14:44;;;;;;;6.00;3.17;;;;;;;;;;7648003;23;20468;-82
2022/04/15 05:17:47;;;;;;;10.93;2.97;;;;;;;;;;7637773;23;20017;-81
2022/04/15 05:20:52;;;;;;;8.82;3.60;;;;;;;;;;7648765;23;20345;-82
2022/04/15 05:23:55;;;;;;;6.63;3.38;;;;;;;;;;7635688;23;20022;-81
2022/04/15 05:26:58;;;;;;;8.27;3.13;;;;;;;;;;7637490;23;20480;-83
2022/04/15 05:30:03;;;;;;;7.25;3.40;;;;;;;;;;7636070;23;20310;-82
2022/04/15 05:33:06;;;;;;;5.93;3.20;;;;;;;;;;7632821;23;20096;-84
2022/04/15 05:36:09;;;;;;;10.13;3.30;;;;;;;;;;7637426;23;20017;-85
2022/04/15 05:39:12;;;;;;;7.97;2.92;;;;;;;;;;7635772;23;20017;-84
2022/04/15 05:42:15;;;;;;;5.97;3.15;;;;;;;;;;7633877;23;20352;-84
2022/04/15 05:45:19;;;;;;;7.28;3.35;;;;;;;;;;7636466;23;20022;-83
2022/04/15 05:48:22;;;;;;;7.65;3.50;;;;;;;;;;7635625;23;20475;-83
2022/04/15 05:51:26;;;;;;;8.73;3.20;;;;;;;;;;7637174;23;20013;-80
2022/04/15 05:54:29;;;;;;;6.53;3.58;;;;;;;;;;7633035;23;20592;-82
2022/04/15 05:57:32;;;;;;;7.88;3.67;;;;;;;;;;7637288;23;20028;-82
2022/04/15 06:00:37;;;;;;;5.88;3.20;;;;;;;;;;7635488;23;20021;-82
2022/04/15 06:03:40;;;;;;;5.03;3.25;;;;;;;;;;7634362;23;20133;-81
2022/04/15 06:06:43;;;;;;;6.85;3.40;;;;;;;;;;7634961;23;20020;-82
2022/04/15 06:09:46;;;;;;;7.22;3.53;;;;;;;;;;7635351;23;20347;-85
2022/04/15 06:13:03;;;;;;;8.90;3.67;;;;;;;;;;7635692;23;20022;-83
2022/04/15 06:16:09;;;;;;;7.43;2.72;;;;;;;;;;7644924;23;20022;-79
2022/04/15 06:19:13;;;;;;;6.00;3.33;;;;;;;;;;7647575;23;20021;-84
2022/04/15 06:22:26;;;;;;;10.55;3.38;;;;;;;;;;7647475;23;20107;-83
2022/04/15 06:25:32;;;;;;;9.93;4.13;;;;;;;;;;7645745;23;20021;-83
2022/04/15 06:28:35;;;;;;;8.77;3.67;;;;;;;;;;7634187;23;20532;-82
2022/04/15 06:31:39;;;;;;;9.00;3.80;;;;;;;;;;7635403;23;20037;-83
2022/04/15 06:34:42;;;;;;;45.13;20.67;;;;;;;;;;7636052;23;20017;-82
2022/04/15 06:37:45;;;;;;;11.90;5.00;;;;;;;;;;7632871;23;20025;-81
2022/04/15 06:40:48;;;;;;;10.75;5.00;;;;;;;;;;7636619;23;20025;-83
2022/04/15 06:43:51;;;;;;;9.75;4.97;;;;;;;;;;7636780;23;20017;-82
2022/04/15 06:46:56;;;;;;;8.30;5.15;;;;;;;;;;7632201;23;20025;-82
2022/04/15 06:49:59;;;;;;;13.85;5.97;;;;;;;;;;7634721;23;20345;-84
2022/04/15 06:53:05;;;;;;;15.77;7.43;;;;;;;;;;7646939;23;20029;-85
2022/04/15 06:56:10;;;;;;;10.52;6.45;;;;;;;;;;7635643;23;20017;-84
2022/04/15 06:59:13;;;;;;;13.27;6.80;;;;;;;;;;7647103;23;20033;-83
2022/04/15 07:02:17;;;;;;;11.20;6.30;;;;;;;;;;7634960;23;20025;-85
2022/04/15 07:05:21;;;;;;;14.57;6.73;;;;;;;;;;7635762;23;20017;-86
2022/04/15 07:08:24;;;;;;;16.52;7.03;;;;;;;;;;7632017;23;20030;-84
2022/04/15 07:11:27;;;;;;;10.70;6.75;;;;;;;;;;7634830;23;20448;-84
2022/04/15 07:14:33;;;;;;;16.00;7.15;;;;;;;;;;7636345;23;20068;-85
2022/04/15 07:17:37;;;;;;;13.88;7.15;;;;;;;;;;7644200;23;20083;-86
2022/04/15 07:20:40;;;;;;;13.88;7.00;;;;;;;;;;7635326;23;20024;-84
2022/04/15 07:23:43;;;;;;;15.05;7.35;;;;;;;;;;7636049;23;20445;-83
2022/04/15 07:26:46;;;;;;;18.10;7.10;;;;;;;;;;7635589;23;20021;-85
2022/04/15 07:29:49;;;;;;;157.65;85.95;;;;;;;;;;7633826;23;20107;-84
2022/04/15 07:32:53;;;;;;;15.05;8.32;;;;;;;;;;7633909;23;20092;-83
2022/04/15 07:35:56;;;;;;;19.45;8.55;;;;;;;;;;7634079;23;20022;-83
2022/04/15 07:39:04;;;;;;;23.42;7.93;;;;;;;;;;7643967;23;20028;-83
2022/04/15 07:42:07;;;;;;;14.70;8.48;;;;;;;;;;7634001;23;20022;-83
2022/04/15 07:45:11;;;;;;;15.43;7.53;;;;;;;;;;7634385;23;20413;-83
2022/04/15 07:48:15;;;;;;;16.63;7.95;;;;;;;;;;7635008;23;20022;-81
2022/04/15 07:51:18;;;;;;;13.95;8.50;;;;;;;;;;7632491;23;20096;-82
2022/04/15 07:54:21;;;;;;;15.68;8.43;;;;;;;;;;7635668;23;20046;-83
2022/04/15 07:57:27;;;;;;;19.88;8.10;;;;;;;;;;7634200;23;20089;-83
2022/04/15 08:00:34;;;;;;;16.42;8.25;;;;;;;;;;7643851;23;20028;-82
2022/04/15 08:03:39;;;;;;;14.90;8.23;;;;;;;;;;7633981;23;20441;-81
2022/04/15 08:06:43;;;;;;;16.48;8.07;;;;;;;;;;7635602;23;20101;-81
2022/04/15 08:09:46;;;;;;;13.40;7.70;;;;;;;;;;7632047;23;20022;-82
2022/04/15 08:12:49;;;;;;;13.90;6.63;;;;;;;;;;7632622;23;20087;-81
2022/04/15 08:15:53;;;;;;;16.40;7.22;;;;;;;;;;7633937;23;20029;-81
2022/04/15 08:18:58;;;;;;;15.50;6.80;;;;;;;;;;7635580;23;20022;-78
2022/04/15 08:22:01;;;;;;;15.38;7.05;;;;;;;;;;7631594;23;20024;-80
2022/04/15 08:25:07;;;;;;;10.38;6.15;;;;;;;;;;7646063;23;20068;-78
2022/04/15 08:28:11;;;;;;;11.13;5.43;;;;;;;;;;7635553;23;20025;-81
2022/04/15 08:31:13;;;;;;;8.45;4.50;;;;;;;;;;7633739;23;20022;-80
2022/04/15 08:34:18;;;;;;;12.35;4.20;;;;;;;;;;7631646;23;20437;-80
2022/04/15 08:37:21;;;;;;;8.20;4.30;;;;;;;;;;7633192;23;20084;-80
2022/04/15 08:40:27;;;;;;;12.68;4.80;;;;;;;;;;7633924;23;20017;-82
2022/04/15 08:43:30;;;;;;;7.22;5.03;;;;;;;;;;7643618;23;20017;-81
2022/04/15 08:46:36;;;;;;;14.07;5.22;;;;;;;;;;7633335;23;20341;-81
2022/04/15 08:49:40;;;;;;;11.40;5.70;;;;;;;;;;7634973;23;20096;-81
2022/04/15 08:52:45;;;;;;;11.15;5.43;;;;;;;;;;7630260;23;20453;-82
2022/04/15 08:55:48;;;;;;;;;;;;;;;;;;7644983;23;20380;-81
2022/04/15 08:58:51;;;;;;;8.02;4.30;;;;;;;;;;7633711;23;20328;-81
2022/04/15 09:01:54;;;;;;;11.32;4.85;;;;;;;;;;7633673;23;20043;-80
2022/04/15 09:04:58;;;;;;;12.77;5.00;;;;;;;;;;7634389;23;20341;-80
2022/04/15 09:08:04;;;;;;;13.50;5.43;;;;;;;;;;7635770;23;20460;-81
2022/04/15 09:11:08;;;;;;;15.95;4.95;;;;;;;;;;7649848;23;20575;-81
2022/04/15 09:14:11;;;;;;;9.32;4.80;;;;;;;;;;7633240;23;20453;-81
2022/04/15 09:17:14;;;;;;;7.10;4.90;;;;;;;;;;7635721;23;20029;-81
2022/04/15 09:20:19;;;;;;;9.80;4.30;;;;;;;;;;7635560;23;20028;-81
2022/04/15 09:23:26;;;;;;;9.35;4.70;;;;;;;;;;7648121;23;20025;-81
2022/04/15 09:26:29;;;;;;;8.75;5.13;;;;;;;;;;7634160;23;20088;-81
2022/04/15 09:29:33;;;;;;;11.25;4.25;;;;;;;;;;7635638;23;20025;-82
2022/04/15 09:32:40;;;;;;;11.05;4.85;;;;;;;;;;7647753;23;20020;-80
2022/04/15 09:35:43;;;;;;;;;;;;;;;;;;7635213;23;20021;-81
2022/04/15 09:38:49;;;;;;;10.35;5.05;;;;;;;;;;7636552;23;19980;-80
2022/04/15 09:41:55;;;;;;;10.30;4.90;;;;;;;;;;7649198;23;20068;-81
2022/04/15 09:45:01;;;;;;;11.70;5.50;;;;;;;;;;7633815;23;20108;-82
2022/04/15 09:48:05;;;;;;;7.28;4.60;;;;;;;;;;7647936;23;20025;-81
2022/04/15 09:51:18;;;;;;;8.70;5.03;;;;;;;;;;7635306;23;20442;-80
2022/04/15 09:54:23;;;;;;;9.02;5.38;;;;;;;;;;7649011;23;20020;-81
2022/04/15 09:57:29;;;;;;;10.85;5.18;;;;;;;;;;7634211;23;20045;-81
2022/04/15 10:00:35;;;;;;;9.20;5.45;;;;;;;;;;7647273;23;20025;-80
2022/04/15 10:03:43;;;;;;;11.65;5.43;;;;;;;;;;7635296;23;20017;-81
2022/04/15 10:06:47;;;;;;;10.02;5.45;;;;;;;;;;7636614;23;20024;-81
2022/04/15 10:09:54;;;;;;;8.52;5.43;;;;;;;;;;7646069;23;20487;-80
2022/04/15 10:12:57;;;;;;;;;;;;;;;;;;7635610;23;20032;-80
2022/04/15 10:16:00;;;;;;;10.70;5.22;;;;;;;;;;7634757;23;19923;-80
2022/04/15 10:19:03;;;;;;;15.65;6.00;;;;;;;;;;7632444;23;20017;-81
2022/04/15 10:22:07;;;;;;;10.15;5.28;;;;;;;;;;7636614;23;20412;-81
2022/04/15 10:25:12;;;;;;;13.00;5.63;;;;;;;;;;7634866;23;20024;-81
2022/04/15 10:28:17;;;;;;;8.95;4.97;;;;;;;;;;7634916;23;20354;-80
2022/04/15 10:31:26;;;;;;;10.25;4.90;;;;;;;;;;7645363;23;20022;-81
2022/04/15 10:34:43;;;;;;;10.32;5.20;;;;;;;;;;7639138;23;20084;-81
2022/04/15 10:37:47;;;;;;;8.43;4.57;;;;;;;;;;7648898;23;20037;-80
2022/04/15 10:40:51;;;;;;;8.40;4.75;;;;;;;;;;7632338;23;20330;-80
2022/04/15 10:43:58;;;;;;;10.30;4.78;;;;;;;;;;7635279;23;20452;-81
2022/04/15 10:47:11;;;;;;;13.23;4.68;;;;;;;;;;7648734;23;20077;-81
2022/04/15 10:50:15;;;;;;;8.50;4.82;;;;;;;;;;7646594;23;20021;-82
2022/04/15 10:53:19;;;;;;;8.88;5.95;;;;;;;;;;7633137;23;20101;-77
2022/04/15 10:56:24;;;;;;;11.93;4.90;;;;;;;;;;7634827;23;20021;-81
2022/04/15 11:02:57;;;;;;;10.68;4.80;;;;;;;;;;7645364;23;20022;-78
2022/04/15 11:06:02;;;;;;;11.25;4.57;;;;;;;;;;7635095;23;20353;-81
2022/04/15 11:09:28;;;;;;;11.00;4.72;;;;;;;;;;7634424;23;20348;-80
2022/04/15 11:12:42;;;;;;;10.45;4.22;;;;;;;;;;7634569;23;20421;-81
2022/04/15 11:15:57;;;;;;;8.90;4.10;;;;;;;;;;7645686;23;20014;-80
2022/04/15 11:19:00;;;;;;;9.93;4.30;;;;;;;;;;7647956;23;20021;-80
2022/04/15 11:22:04;;;;;;;8.02;4.50;;;;;;;;;;7636282;23;20596;-80
2022/04/15 11:25:08;;;;;;;10.13;5.03;;;;;;;;;;7635908;23;20345;-81
2022/04/15 11:28:19;;;;;;;8.10;4.20;;;;;;;;;;7644368;23;20031;-80
2022/04/15 11:31:22;;;;;;;7.07;3.95;;;;;;;;;;7646819;23;20065;-80
2022/04/15 11:34:26;;;;;;;6.65;4.22;;;;;;;;;;7634319;23;20021;-79
2022/04/15 11:37:29;;;;;;;9.55;3.53;;;;;;;;;;7632067;23;20072;-79
2022/04/15 11:40:34;;;;;;;9.43;4.45;;;;;;;;;;7633845;23;20029;-79
2022/04/15 11:43:39;;;;;;;9.18;4.68;;;;;;;;;;7646535;23;20353;-80
2022/04/15 11:46:45;;;;;;;15.02;6.20;;;;;;;;;;7645966;23;20044;-81
2022/04/15 11:49:49;;;;;;;11.73;5.63;;;;;;;;;;7633876;23;20096;-81
2022/04/15 11:53:05;;;;;;;12.13;5.13;;;;;;;;;;7634357;23;20021;-80
2022/04/15 11:56:11;;;;;;;11.45;5.32;;;;;;;;;;7646432;23;20022;-81
2022/04/15 11:59:17;;;;;;;9.57;5.15;;;;;;;;;;7646602;23;20029;-81
2022/04/15 12:02:23;;;;;;;10.90;5.00;;;;;;;;;;7633448;23;20415;-81
2022/04/15 12:05:27;;;;;;;9.13;4.50;;;;;;;;;;7636241;23;20018;-81
2022/04/15 12:08:30;;;;;;;8.98;4.80;;;;;;;;;;7633956;23;20025;-81
2022/04/15 12:11:33;;;;;;;8.90;4.43;;;;;;;;;;7634147;23;20021;-80
2022/04/15 12:14:38;;;;;;;14.48;5.38;;;;;;;;;;7638181;23;20041;-81
2022/04/15 12:17:41;;;;;;;11.73;5.65;;;;;;;;;;7636771;23;20033;-81
2022/04/15 12:20:44;;;;;;;17.30;6.55;;;;;;;;;;7636223;23;20088;-81
2022/04/15 12:23:59;;;;;;;13.23;6.60;;;;;;;;;;7637091;23;20021;-80
2022/04/15 12:27:04;;;;;;;17.23;6.97;;;;;;;;;;7648811;23;20021;-80
2022/04/15 12:30:09;;;;;;;11.68;6.38;;;;;;;;;;7638056;23;20028;-78
2022/04/15 12:33:12;;;;;;;12.20;6.53;;;;;;;;;;7634204;23;20028;-80
2022/04/15 12:36:17;;;;;;;12.23;6.18;;;;;;;;;;7636597;23;20286;-80
2022/04/15 12:39:20;;;;;;;12.73;5.95;;;;;;;;;;7637968;23;20096;-79
2022/04/15 12:42:29;;;;;;;10.20;6.32;;;;;;;;;;7646330;23;20072;-81
2022/04/15 12:45:47;;;;;;;12.07;6.13;;;;;;;;;;7648037;23;20103;-81
2022/04/15 12:48:51;;;;;;;10.88;5.90;;;;;;;;;;7648266;23;20076;-80
2022/04/15 12:51:58;;;;;;;11.20;6.43;;;;;;;;;;7637660;23;20344;-80
2022/04/15 12:55:02;;;;;;;9.18;5.97;;;;;;;;;;7647944;23;20515;-80
2022/04/15 12:58:17;;;;;;;9.98;6.28;;;;;;;;;;7650029;23;20028;-78
2022/04/15 13:01:21;;;;;;;11.75;6.78;;;;;;;;;;7648508;23;20021;-79
2022/04/15 13:04:24;;;;;;;11.55;6.13;;;;;;;;;;7634580;23;20028;-79
2022/04/15 13:07:27;;;;;;;11.30;6.05;;;;;;;;;;7635315;23;20017;-80
2022/04/15 13:10:30;;;;;;;10.15;5.85;;;;;;;;;;7636202;23;20101;-80
2022/04/15 13:13:54;;;;;;;14.25;5.70;;;;;;;;;;7648345;23;20025;-78
2022/04/15 13:16:58;;;;;;;11.55;5.20;;;;;;;;;;7633528;23;20037;-78
2022/04/15 13:20:02;;;;;;;12.00;5.47;;;;;;;;;;7635615;23;20024;-79
2022/04/15 13:23:05;;;;;;;9.00;4.50;;;;;;;;;;7637375;23;20642;-78
2022/04/15 13:26:08;;;;;;;8.75;4.57;;;;;;;;;;7634906;23;20441;-79
2022/04/15 13:29:11;;;;;;;7.57;4.60;;;;;;;;;;7636156;23;20095;-80
2022/04/15 13:32:15;;;;;;;9.73;4.85;;;;;;;;;;7635798;23;20025;-78
2022/04/15 13:35:18;;;;;;;10.15;4.70;;;;;;;;;;7637563;23;20447;-79
2022/04/15 13:38:21;;;;;;;9.88;5.25;;;;;;;;;;7633283;23;20076;-79
2022/04/15 13:41:26;;;;;;;10.93;4.88;;;;;;;;;;7637339;23;20100;-79
2022/04/15 13:44:30;;;;;;;39.90;22.25;;;;;;;;;;7637309;23;20352;-78
2022/04/15 13:47:37;;;;;;;13.15;6.28;;;;;;;;;;7647715;23;20018;-76
2022/04/15 13:50:40;;;;;;;10.33;6.07;;;;;;;;;;7634541;23;20014;-77
2022/04/15 13:57:03;;;;;;;9.88;6.38;;;;;;;;;;7647694;23;20018;-76
2022/04/15 14:00:08;;;;;;;11.60;6.55;;;;;;;;;;7632736;23;20061;-75
2022/04/15 14:03:12;;;;;;;11.27;6.22;;;;;;;;;;7635524;23;20456;-76
2022/04/15 14:06:15;;;;;;;14.13;6.53;;;;;;;;;;7635144;23;20028;-76
2022/04/15 14:09:19;;;;;;;12.52;7.07;;;;;;;;;;7633772;23;20461;-75
2022/04/15 14:12:22;;;;;;;10.63;6.88;;;;;;;;;;7635727;23;20045;-76
2022/04/15 14:15:25;;;;;;;12.80;6.97;;;;;;;;;;7637238;23;20025;-75
2022/04/15 14:18:29;;;;;;;11.27;6.72;;;;;;;;;;7634944;23;20021;-76
2022/04/15 14:21:35;;;;;;;12.40;6.75;;;;;;;;;;7644757;23;20024;-77
2022/04/15 14:24:38;;;;;;;13.65;7.20;;;;;;;;;;7634910;23;20093;-77
2022/04/15 14:27:41;;;;;;;14.38;7.47;;;;;;;;;;7636514;23;20368;-79
2022/04/15 14:30:44;;;;;;;15.73;6.72;;;;;;;;;;7634227;23;20042;-75
2022/04/15 14:33:48;;;;;;;18.77;7.30;;;;;;;;;;7635969;23;20024;-76
2022/04/15 14:36:51;;;;;;;12.05;7.35;;;;;;;;;;7634466;23;20088;-77
2022/04/15 14:39:54;;;;;;;10.40;7.38;;;;;;;;;;7633928;23;20076;-76
2022/04/15 14:42:57;;;;;;;27.80;17.20;;;;;;;;;;7634449;23;20101;-76
2022/04/15 14:46:01;;;;;;;22.05;12.65;;;;;;;;;;7634565;23;20024;-78
2022/04/15 14:49:06;;;;;;;11.90;7.10;;;;;;;;;;7636182;23;20025;-77
2022/04/15 14:52:12;;;;;;;14.77;8.18;;;;;;;;;;7641787;23;20352;-77
2022/04/15 14:55:15;;;;;;;12.27;7.57;;;;;;;;;;7634902;23;20025;-77
2022/04/15 14:58:18;;;;;;;16.00;8.18;;;;;;;;;;7635628;23;20021;-78
2022/04/15 15:01:21;;;;;;;11.82;6.93;;;;;;;;;;7629959;23;20025;-78
2022/04/15 15:04:28;;;;;;;12.93;7.55;;;;;;;;;;7635926;23;20172;-80
2022/04/15 15:07:53;;;;;;;13.50;7.78;;;;;;;;;;7648107;23;20021;-81
2022/04/15 15:10:56;;;;;;;13.82;7.90;;;;;;;;;;7634532;23;20021;-81
2022/04/15 15:14:01;;;;;;;12.57;7.53;;;;;;;;;;7631890;23;20017;-79
2022/04/15 15:17:13;;;;;;;15.95;7.57;;;;;;;;;;7648154;23;20025;-80
2022/04/15 15:20:18;;;;;;;16.73;7.63;;;;;;;;;;7634802;23;20027;-78
2022/04/15 15:23:21;;;;;;;;;;;;;;;;;;7635971;23;20022;-84
2022/04/15 15:29:50;;;;;;;15.32;7.82;;;;;;;;;;7636165;23;20022;-78
2022/04/15 15:32:53;;;;;;;12.15;7.43;;;;;;;;;;7646231;23;20755;-80
2022/04/15 15:35:58;;;;;;;14.15;7.50;;;;;;;;;;7634106;23;20025;-78
2022/04/15 15:39:01;;;;;;;16.75;7.20;;;;;;;;;;7633445;23;20115;-81
2022/04/15 15:42:06;;;;;;;15.35;6.47;;;;;;;;;;7636048;23;20485;-78
2022/04/15 15:45:09;;;;;;;12.00;6.50;;;;;;;;;;7636520;23;20020;-78
2022/04/15 15:48:12;;;;;;;10.93;6.47;;;;;;;;;;7633663;23;20021;-80
2022/04/15 15:51:19;;;;;;;12.57;5.40;;;;;;;;;;7646533;23;20017;-79
2022/04/15 15:54:22;;;;;;;8.97;5.57;;;;;;;;;;7636279;23;20276;-76
2022/04/15 15:57:25;;;;;;;9.00;5.35;;;;;;;;;;7633599;23;20560;-75
2022/04/15 16:00:36;;;;;;;11.43;4.95;;;;;;;;;;7645441;23;20022;-77
2022/04/15 16:03:39;;;;;;;7.82;5.03;;;;;;;;;;7634025;23;20423;-78
2022/04/15 16:06:45;;;;;;;7.65;4.63;;;;;;;;;;7637988;23;20028;-77
2022/04/15 16:09:48;;;;;;;9.50;5.00;;;;;;;;;;7633589;23;20017;-79
2022/04/15 16:12:54;;;;;;;10.68;5.60;;;;;;;;;;7646383;23;20345;-78
2022/04/15 16:15:57;;;;;;;14.52;5.25;;;;;;;;;;7635711;23;20021;-83
2022/04/15 16:19:00;;;;;;;12.63;5.60;;;;;;;;;;7631873;23;20022;-80
2022/04/15 16:22:05;;;;;;;19.40;12.82;;;;;;;;;;7634113;23;20024;-80
2022/04/15 16:25:09;;;;;;;6.20;4.68;;;;;;;;;;7634305;23;20044;-78
2022/04/15 16:28:12;;;;;;;8.63;5.30;;;;;;;;;;7633366;23;20017;-79
2022/04/15 16:31:15;;;;;;;7.20;4.57;;;;;;;;;;7633835;23;20072;-76
2022/04/15 16:34:18;;;;;;;9.52;5.25;;;;;;;;;;7634229;23;20017;-76
2022/04/15 16:37:23;;;;;;;6.97;4.85;;;;;;;;;;7635341;23;20452;-77
2022/04/15 16:40:28;;;;;;;7.82;5.20;;;;;;;;;;7644191;23;20169;-79
2022/04/15 16:43:31;;;;;;;10.23;5.45;;;;;;;;;;7633763;23;20080;-77
2022/04/15 16:46:34;;;;;;;8.52;4.70;;;;;;;;;;7634153;23;20032;-79
2022/04/15 16:49:37;;;;;;;7.00;4.93;;;;;;;;;;7632511;23;20025;-79
2022/04/15 16:52:43;;;;;;;8.93;4.55;;;;;;;;;;7632357;23;20017;-80
2022/04/15 16:59:07;;;;;;;10.18;5.15;;;;;;;;;;7647147;23;20021;-79
2022/04/15 17:02:12;;;;;;;8.35;5.05;;;;;;;;;;7635050;23;20345;-80
2022/04/15 17:05:15;;;;;;;7.80;5.10;;;;;;;;;;7630072;23;20374;-81
2022/04/15 17:08:26;;;;;;;10.30;4.28;;;;;;;;;;7644443;23;20543;-80
2022/04/15 17:11:29;;;;;;;9.95;4.47;;;;;;;;;;7605291;23;20033;-80
2022/04/15 17:14:33;;;;;;;9.98;5.00;;;;;;;;;;7630789;23;20022;-80
2022/04/15 17:17:36;;;;;;;6.50;4.13;;;;;;;;;;7634602;23;20027;-81
2022/04/15 17:20:40;;;;;;;7.97;4.40;;;;;;;;;;7637417;23;20021;-81
2022/04/15 17:23:44;;;;;;;8.32;4.40;;;;;;;;;;7633555;23;20049;-80
2022/04/15 17:26:47;;;;;;;7.32;4.55;;;;;;;;;;7635869;23;20018;-82
2022/04/15 17:29:53;;;;;;;;;;;;;;;;;;7648610;23;20051;-82
2022/04/15 17:32:56;;;;;;;9.05;4.60;;;;;;;;;;7633982;23;20387;-82
2022/04/15 17:36:00;;;;;;;9.98;5.05;;;;;;;;;;7634636;23;20449;-82
2022/04/15 17:39:05;;;;;;;9.00;5.57;;;;;;;;;;7637097;23;20018;-80
2022/04/15 17:42:08;;;;;;;10.30;5.47;;;;;;;;;;7636714;23;20041;-80
2022/04/15 17:45:11;;;;;;;6.60;4.75;;;;;;;;;;7633532;23;20017;-81
2022/04/15 17:48:14;;;;;;;8.98;5.32;;;;;;;;;;7635540;23;20095;-82
2022/04/15 17:51:17;;;;;;;10.23;4.90;;;;;;;;;;7635554;23;20362;-82
2022/04/15 17:54:21;;;;;;;7.32;5.25;;;;;;;;;;7635028;23;20028;-83
2022/04/15 17:57:27;;;;;;;12.18;5.32;;;;;;;;;;7648696;23;20065;-83
2022/04/15 18:00:31;;;;;;;9.40;4.68;;;;;;;;;;7636846;23;20068;-82
2022/04/15 18:03:34;;;;;;;9.33;4.97;;;;;;;;;;7634401;23;20469;-81
2022/04/15 18:06:37;;;;;;;9.35;5.00;;;;;;;;;;7633446;23;20104;-80
2022/04/15 18:09:42;;;;;;;17.73;5.70;;;;;;;;;;7611149;23;20349;-81
2022/04/15 18:12:45;;;;;;;8.50;6.10;;;;;;;;;;7636743;23;20021;-81
2022/04/15 18:15:48;;;;;;;10.10;5.72;;;;;;;;;;7634426;23;20029;-82
2022/04/15 18:18:54;;;;;;;14.63;6.43;;;;;;;;;;7671891;23;20461;-83
2022/04/15 18:21:57;;;;;;;12.77;6.53;;;;;;;;;;7635080;23;20021;-84
2022/04/15 18:25:02;;;;;;;10.73;6.50;;;;;;;;;;7635245;23;20021;-84
2022/04/15 18:28:05;;;;;;;9.98;5.75;;;;;;;;;;7633874;23;20025;-83
2022/04/15 18:31:09;;;;;;;8.52;5.25;;;;;;;;;;7635356;23;20473;-83
2022/04/15 18:34:15;;;;;;;10.57;5.85;;;;;;;;;;7636264;23;20018;-85